createdAt,value
2023-01-23T00:01:25.017Z,99.90
2023-01-23T00:03:52.408Z,99.90
2023-01-23T00:06:19.167Z,99.90
2023-01-23T00:08:46.199Z,99.90
2023-01-23T00:11:14.735Z,99.90
2023-01-23T00:13:41.419Z,99.90
2023-01-23T00:16:09.918Z,99.90
2023-01-23T00:18:36.610Z,99.90
2023-01-23T00:21:07.397Z,95.30
2023-01-23T00:23:34.193Z,99.90
2023-01-23T00:26:08.320Z,99.90
2023-01-23T00:28:35.016Z,87.30
2023-01-23T00:31:09.785Z,69.50
2023-01-23T00:33:36.451Z,68.40
2023-01-23T00:36:03.245Z,70.50
2023-01-23T00:38:29.929Z,90.90
2023-01-23T00:40:56.761Z,74.90
2023-01-23T00:43:24.079Z,71.30
2023-01-23T00:45:51.892Z,55.20
2023-01-23T00:48:18.534Z,78.40
2023-01-23T00:50:45.217Z,99.90
2023-01-23T00:53:13.123Z,99.90
2023-01-23T00:55:40.157Z,99.90
2023-01-23T00:58:07.214Z,99.90
2023-01-23T01:00:34.074Z,99.90
2023-01-23T01:03:00.748Z,99.90
2023-01-23T01:05:27.475Z,99.90
2023-01-23T01:07:54.146Z,99.90
2023-01-23T01:10:21.335Z,99.90
2023-01-23T01:12:48.071Z,99.90
2023-01-23T01:15:14.774Z,99.90
2023-01-23T01:17:41.444Z,99.90
2023-01-23T01:20:08.759Z,99.90
2023-01-23T01:22:35.410Z,99.90
2023-01-23T01:25:02.155Z,99.90
2023-01-23T01:27:29.108Z,99.90
2023-01-23T01:29:55.904Z,99.90
2023-01-23T01:32:22.526Z,99.90
2023-01-23T01:34:50.778Z,99.90
2023-01-23T01:37:17.434Z,99.90
2023-01-23T01:39:44.065Z,99.90
2023-01-23T01:42:10.684Z,99.90
2023-01-23T01:45:00.932Z,99.90
2023-01-23T01:47:27.677Z,99.90
2023-01-23T01:49:56.730Z,99.90
2023-01-23T01:52:23.536Z,99.90
2023-01-23T01:54:53.417Z,99.90
2023-01-23T01:57:48.833Z,99.90
2023-01-23T02:00:18.007Z,99.90
2023-01-23T02:02:55.585Z,99.90
2023-01-23T02:05:30.385Z,1.00
2023-01-23T02:08:19.130Z,1.00
2023-01-23T02:10:46.124Z,1.00
2023-01-23T02:13:36.020Z,1.00
2023-01-23T02:16:05.779Z,1.00
2023-01-23T02:18:33.101Z,1.00
2023-01-23T02:21:01.535Z,1.00
2023-01-23T02:23:55.857Z,1.00
2023-01-23T02:26:36.724Z,1.00
2023-01-23T02:29:03.867Z,1.00
2023-01-23T02:31:30.761Z,1.00
2023-01-23T02:33:58.443Z,1.00
2023-01-23T02:36:30.294Z,1.00
2023-01-23T02:39:10.949Z,1.00
2023-01-23T02:41:40.639Z,1.00
2023-01-23T02:44:28.619Z,1.00
2023-01-23T02:46:56.347Z,1.00
2023-01-23T02:49:23.208Z,1.00
2023-01-23T02:51:50.629Z,1.00
2023-01-23T02:54:17.400Z,1.00
2023-01-23T02:56:44.019Z,1.00
2023-01-23T02:59:29.082Z,1.00
2023-01-23T03:01:55.734Z,1.00
2023-01-23T03:04:22.431Z,1.00
2023-01-23T03:06:49.141Z,1.00
2023-01-23T03:09:16.477Z,1.00
2023-01-23T03:11:44.067Z,1.00
2023-01-23T03:14:18.206Z,1.00
2023-01-23T03:16:49.919Z,1.00
2023-01-23T03:19:17.164Z,1.00
2023-01-23T03:21:43.801Z,1.00
2023-01-23T03:24:11.916Z,1.00
2023-01-23T03:26:39.918Z,1.00
2023-01-23T03:29:25.402Z,1.00
2023-01-23T03:31:52.369Z,1.00
2023-01-23T03:34:19.309Z,1.00
2023-01-23T03:36:45.937Z,1.00
2023-01-23T03:39:41.584Z,1.00
2023-01-23T03:42:08.283Z,1.00
2023-01-23T03:44:34.971Z,1.00
2023-01-23T03:47:01.628Z,1.00
2023-01-23T03:49:28.297Z,1.00
2023-01-23T03:51:54.964Z,1.00
2023-01-23T03:54:21.601Z,1.00
2023-01-23T03:56:48.246Z,1.00
2023-01-23T03:59:14.862Z,1.00
2023-01-23T04:01:41.566Z,1.00
2023-01-23T04:04:08.404Z,1.00
2023-01-23T04:06:35.220Z,1.00
2023-01-23T04:09:01.857Z,1.00
2023-01-23T04:11:28.787Z,1.00
2023-01-23T04:13:55.440Z,1.00
2023-01-23T04:16:22.974Z,1.00
2023-01-23T04:18:50.802Z,1.00
2023-01-23T04:21:17.774Z,1.00
2023-01-23T04:23:44.415Z,1.00
2023-01-23T04:26:11.089Z,1.00
2023-01-23T04:28:37.932Z,1.00
2023-01-23T04:31:05.324Z,1.00
2023-01-23T04:33:32.021Z,1.00
2023-01-23T04:36:00.454Z,1.00
2023-01-23T04:38:27.713Z,1.00
2023-01-23T04:40:54.615Z,1.00
2023-01-23T04:43:21.252Z,1.00
2023-01-23T04:45:50.519Z,1.00
2023-01-23T04:48:17.146Z,1.00
2023-01-23T04:50:43.776Z,1.00
2023-01-23T04:53:10.577Z,1.00
2023-01-23T04:55:37.413Z,1.00
2023-01-23T04:58:04.026Z,1.00
2023-01-23T05:00:30.695Z,1.00
2023-01-23T05:02:57.569Z,1.00
2023-01-23T05:05:24.681Z,1.00
2023-01-23T05:07:51.529Z,1.00
2023-01-23T05:10:18.491Z,1.00
2023-01-23T05:12:45.183Z,1.00
2023-01-23T05:15:11.951Z,1.00
2023-01-23T05:17:38.556Z,1.00
2023-01-23T05:20:05.979Z,1.00
2023-01-23T05:22:33.578Z,1.00
2023-01-23T05:25:00.402Z,1.00
2023-01-23T05:27:27.072Z,1.00
2023-01-23T05:29:53.724Z,1.00
2023-01-23T05:32:20.678Z,1.00
2023-01-23T05:34:47.400Z,1.00
2023-01-23T05:37:14.046Z,1.00
2023-01-23T05:39:40.710Z,1.00
2023-01-23T05:42:07.326Z,1.00
2023-01-23T05:44:34.019Z,1.00
2023-01-23T05:47:00.678Z,1.00
2023-01-23T05:49:27.289Z,1.00
2023-01-23T05:51:53.953Z,1.00
2023-01-23T05:54:20.618Z,1.00
2023-01-23T05:56:47.299Z,1.00
2023-01-23T05:59:14.130Z,1.00
2023-01-23T06:01:40.787Z,1.00
2023-01-23T06:04:07.655Z,1.00
2023-01-23T06:06:34.385Z,1.00
2023-01-23T06:09:01.059Z,1.00
2023-01-23T06:11:27.863Z,1.00
2023-01-23T06:13:54.504Z,1.00
2023-01-23T06:16:21.276Z,1.00
2023-01-23T06:18:48.008Z,1.00
2023-01-23T06:21:15.271Z,1.00
2023-01-23T06:23:41.946Z,1.00
2023-01-23T06:26:08.605Z,1.00
2023-01-23T06:28:35.286Z,1.00
2023-01-23T06:31:02.633Z,1.00
2023-01-23T06:33:29.929Z,1.00
2023-01-23T06:36:01.016Z,1.00
2023-01-23T06:38:28.140Z,1.00
2023-01-23T06:40:55.008Z,1.00
2023-01-23T06:43:21.958Z,1.00
2023-01-23T06:45:48.850Z,1.00
2023-01-23T06:48:15.510Z,1.00
2023-01-23T06:50:42.598Z,1.00
2023-01-23T06:53:09.503Z,1.00
2023-01-23T06:55:36.189Z,1.00
2023-01-23T06:58:02.837Z,1.00
2023-01-23T07:00:29.461Z,1.00
2023-01-23T07:02:58.910Z,1.00
2023-01-23T07:05:25.736Z,1.00
2023-01-23T07:07:52.350Z,1.00
2023-01-23T07:10:19.362Z,1.00
2023-01-23T07:12:46.297Z,1.00
2023-01-23T07:15:13.180Z,1.00
2023-01-23T07:17:40.004Z,1.00
2023-01-23T07:20:07.185Z,1.00
2023-01-23T07:22:33.830Z,1.00
2023-01-23T07:25:00.510Z,1.00
2023-01-23T07:27:27.223Z,1.00
2023-01-23T07:29:53.865Z,1.00
2023-01-23T07:32:20.493Z,99.90
2023-01-23T07:34:47.155Z,99.90
2023-01-23T07:37:13.885Z,99.90
2023-01-23T07:39:40.547Z,99.90
2023-01-23T07:42:07.225Z,99.90
2023-01-23T07:44:33.870Z,99.90
2023-01-23T07:47:00.637Z,99.90
2023-01-23T07:49:27.310Z,99.90
2023-01-23T07:51:53.993Z,99.90
2023-01-23T07:54:20.622Z,99.90
2023-01-23T07:56:49.934Z,99.90
2023-01-23T07:59:16.807Z,99.90
2023-01-23T08:01:43.699Z,88.00
2023-01-23T08:04:10.356Z,60.00
2023-01-23T08:06:38.175Z,20.40
2023-01-23T08:09:04.859Z,17.80
2023-01-23T08:11:34.214Z,64.90
2023-01-23T08:14:01.238Z,50.90
2023-01-23T08:16:28.151Z,69.20
2023-01-23T08:18:54.871Z,72.00
2023-01-23T08:21:21.664Z,1.00
2023-01-23T08:23:48.340Z,9.30
2023-01-23T08:26:16.390Z,20.90
2023-01-23T08:28:43.618Z,42.80
2023-01-23T08:31:11.078Z,75.60
2023-01-23T08:33:38.177Z,48.40
2023-01-23T08:36:05.542Z,50.10
2023-01-23T08:38:32.273Z,99.90
2023-01-23T08:41:00.141Z,99.90
2023-01-23T08:43:26.761Z,11.80
2023-01-23T08:45:54.494Z,1.00
2023-01-23T08:48:22.278Z,1.00
2023-01-23T08:50:49.136Z,1.00
2023-01-23T08:53:15.812Z,1.00
2023-01-23T08:55:42.875Z,1.00
2023-01-23T08:58:10.030Z,1.00
2023-01-23T09:00:36.706Z,1.00
2023-01-23T09:03:03.444Z,1.00
2023-01-23T09:05:30.203Z,1.00
2023-01-23T09:08:03.072Z,1.00
2023-01-23T09:10:29.724Z,1.00
2023-01-23T09:12:56.944Z,1.00
2023-01-23T09:15:23.633Z,1.00
2023-01-23T09:17:50.293Z,1.00
2023-01-23T09:20:17.258Z,1.00
2023-01-23T09:22:44.131Z,1.00
2023-01-23T09:25:11.259Z,1.00
2023-01-23T09:27:37.906Z,1.00
2023-01-23T09:30:05.102Z,1.00
2023-01-23T09:32:31.739Z,99.90
2023-01-23T09:34:58.405Z,1.00
2023-01-23T09:37:25.084Z,1.00
2023-01-23T09:39:51.718Z,99.90
2023-01-23T09:42:21.109Z,99.90
2023-01-23T09:44:50.547Z,99.90
2023-01-23T09:47:39.039Z,99.90
2023-01-23T09:50:12.328Z,99.90
2023-01-23T09:52:49.831Z,99.90
2023-01-23T09:55:42.767Z,99.90
2023-01-23T09:58:19.854Z,99.90
2023-01-23T10:00:46.552Z,99.90
2023-01-23T10:03:15.373Z,99.90
2023-01-23T10:06:05.625Z,99.90
2023-01-23T10:08:32.217Z,99.90
2023-01-23T10:11:01.084Z,99.90
2023-01-23T10:13:35.742Z,99.90
2023-01-23T10:16:18.986Z,99.90
2023-01-23T10:19:16.271Z,99.90
2023-01-23T10:21:51.932Z,99.90
2023-01-23T10:24:40.752Z,99.90
2023-01-23T10:27:20.095Z,99.90
2023-01-23T10:29:52.759Z,99.90
2023-01-23T10:35:03.856Z,99.90
2023-01-23T10:37:35.668Z,99.90
2023-01-23T10:40:05.873Z,73.70
2023-01-23T10:42:32.567Z,99.90
2023-01-23T10:44:59.230Z,99.90
2023-01-23T10:47:38.842Z,79.70
2023-01-23T10:50:07.347Z,99.90
2023-01-23T10:52:39.095Z,83.40
2023-01-23T10:55:24.696Z,79.40
2023-01-23T10:57:54.698Z,73.60
2023-01-23T11:00:47.459Z,82.80
2023-01-23T11:03:20.149Z,42.90
2023-01-23T11:06:05.602Z,49.10
2023-01-23T11:08:34.310Z,73.00
2023-01-23T11:11:16.200Z,82.30
2023-01-23T11:13:43.832Z,67.70
2023-01-23T11:16:17.691Z,53.40
2023-01-23T11:19:12.637Z,52.40
2023-01-23T11:21:52.705Z,38.80
2023-01-23T11:24:39.017Z,54.90
2023-01-23T11:27:17.946Z,31.10
2023-01-23T11:30:01.233Z,19.40
2023-01-23T11:32:28.285Z,10.30
2023-01-23T11:35:04.087Z,1.00
2023-01-23T11:37:32.962Z,1.00
2023-01-23T11:40:13.941Z,1.00
2023-01-23T11:42:41.516Z,1.00
2023-01-23T11:45:20.309Z,1.00
2023-01-23T11:48:19.776Z,1.00
2023-01-23T11:51:19.477Z,1.00
2023-01-23T11:54:12.561Z,1.00
2023-01-23T11:57:05.188Z,1.00
2023-01-23T11:59:44.142Z,1.00
2023-01-23T12:02:17.846Z,1.00
2023-01-23T12:05:11.353Z,1.00
2023-01-23T12:08:20.447Z,1.00
2023-01-23T12:11:12.163Z,1.00
2023-01-23T12:13:51.310Z,1.00
2023-01-23T12:16:23.246Z,1.00
2023-01-23T12:19:20.523Z,1.00
2023-01-23T12:22:25.491Z,1.00
2023-01-23T12:25:22.798Z,1.00
2023-01-23T12:27:50.530Z,1.00
2023-01-23T12:30:38.867Z,1.00
2023-01-23T12:33:18.410Z,1.00
2023-01-23T12:35:56.882Z,1.00
2023-01-23T12:38:55.762Z,1.00
2023-01-23T12:41:41.812Z,1.00
2023-01-23T12:44:21.496Z,1.00
2023-01-23T12:47:14.524Z,1.00
2023-01-23T12:49:46.347Z,1.00
2023-01-23T12:52:35.978Z,1.00
2023-01-23T12:55:06.889Z,1.00
2023-01-23T12:57:59.854Z,1.00
2023-01-23T13:00:52.591Z,1.00
2023-01-23T13:03:46.227Z,1.00
2023-01-23T13:06:35.068Z,1.00
2023-01-23T13:09:37.401Z,1.00
2023-01-23T13:12:22.900Z,1.00
2023-01-23T13:15:34.377Z,1.00
2023-01-23T13:18:01.788Z,1.00
2023-01-23T13:20:53.516Z,1.00
2023-01-23T13:23:27.030Z,1.00
2023-01-23T13:26:23.019Z,1.00
2023-01-23T13:28:51.521Z,1.00
2023-01-23T13:31:36.447Z,1.00
2023-01-23T13:34:16.309Z,1.00
2023-01-23T13:36:46.775Z,1.00
2023-01-23T13:39:13.458Z,1.00
2023-01-23T13:41:40.122Z,1.00
2023-01-23T13:44:27.205Z,1.00
2023-01-23T14:21:54.721Z,99.90
2023-01-23T14:24:26.375Z,99.90
2023-01-23T14:27:08.394Z,99.90
2023-01-23T14:29:35.383Z,99.90
2023-01-23T14:32:02.309Z,99.90
2023-01-23T14:34:28.973Z,99.90
2023-01-23T14:37:06.139Z,99.90
2023-01-23T14:39:34.282Z,99.90
2023-01-23T14:42:02.651Z,99.90
2023-01-23T14:44:46.331Z,99.90
2023-01-23T14:47:37.911Z,99.90
2023-01-23T14:50:09.433Z,99.90
2023-01-23T14:52:36.240Z,99.90
2023-01-23T14:55:07.733Z,99.90
2023-01-23T14:57:34.881Z,99.90
2023-01-23T15:00:01.545Z,99.90
2023-01-23T15:02:31.606Z,99.90
2023-01-23T15:05:13.342Z,99.90
2023-01-23T15:07:44.697Z,99.90
2023-01-23T15:10:27.019Z,99.90
2023-01-23T15:13:05.199Z,99.90
2023-01-23T15:15:33.121Z,99.90
2023-01-23T15:18:00.641Z,99.90
2023-01-23T15:20:41.312Z,99.90
2023-01-23T15:23:31.663Z,99.90
2023-01-23T15:26:19.448Z,99.90
2023-01-23T15:28:51.109Z,99.90
2023-01-23T15:31:27.843Z,99.90
2023-01-23T15:33:55.206Z,99.90
2023-01-23T15:36:26.144Z,99.90
2023-01-23T15:38:53.191Z,99.90
2023-01-23T15:41:33.756Z,99.90
2023-01-23T15:44:01.103Z,99.90
2023-01-23T15:46:27.847Z,99.90
2023-01-23T15:48:54.591Z,99.90
2023-01-23T15:51:21.244Z,99.90
2023-01-23T15:53:47.940Z,99.90
2023-01-23T15:56:27.409Z,99.90
2023-01-23T15:58:54.063Z,99.90
2023-01-23T16:01:21.024Z,99.90
2023-01-23T16:03:47.757Z,99.90
2023-01-23T16:06:17.744Z,99.90
2023-01-23T16:08:45.021Z,99.90
2023-01-23T16:11:13.804Z,99.90
2023-01-23T16:13:40.560Z,99.90
2023-01-23T16:16:17.469Z,99.90
2023-01-23T16:18:44.496Z,99.90
2023-01-23T16:21:15.678Z,99.90
2023-01-23T16:23:47.606Z,1.00
2023-01-23T16:26:21.743Z,1.00
2023-01-23T16:28:48.368Z,1.00
2023-01-23T16:31:16.011Z,1.00
2023-01-23T16:33:43.059Z,1.00
2023-01-23T16:36:17.306Z,1.00
2023-01-23T16:38:48.214Z,1.00
2023-01-23T16:41:14.841Z,1.00
2023-01-23T16:43:41.481Z,1.00
2023-01-23T16:46:09.227Z,1.00
2023-01-23T16:48:35.981Z,1.00
2023-01-23T16:51:14.437Z,1.00
2023-01-23T16:53:42.648Z,1.00
2023-01-23T16:56:15.497Z,1.00
2023-01-23T16:58:42.202Z,1.00
2023-01-23T17:01:13.669Z,1.00
2023-01-23T17:03:43.061Z,1.00
2023-01-23T17:06:14.260Z,1.00
2023-01-23T17:08:40.890Z,1.00
2023-01-23T17:11:07.515Z,1.00
2023-01-23T17:13:35.714Z,1.00
2023-01-23T17:16:03.282Z,1.00
2023-01-23T17:18:32.086Z,1.00
2023-01-23T17:20:58.711Z,1.00
2023-01-23T17:23:25.614Z,1.00
2023-01-23T17:26:00.268Z,1.00
2023-01-23T17:28:28.136Z,1.00
2023-01-23T17:30:55.156Z,1.00
2023-01-23T17:33:23.411Z,1.00
2023-01-23T17:35:50.143Z,1.00
2023-01-23T17:38:17.600Z,1.00
2023-01-23T17:40:45.318Z,1.00
2023-01-23T17:43:13.146Z,1.00
2023-01-23T17:45:40.768Z,1.00
2023-01-23T17:48:17.994Z,1.00
2023-01-23T17:50:45.440Z,1.00
2023-01-23T17:53:13.591Z,4.20
2023-01-23T17:55:43.541Z,13.40
2023-01-23T17:58:10.427Z,37.30
2023-01-23T18:00:37.969Z,36.80
2023-01-23T18:03:04.604Z,17.90
2023-01-23T18:05:31.375Z,8.30
2023-01-23T18:07:58.027Z,1.00
2023-01-23T18:10:28.569Z,1.00
2023-01-23T18:13:07.195Z,1.00
2023-01-23T18:15:56.870Z,1.00
2023-01-23T18:18:37.409Z,1.00
2023-01-23T18:21:05.348Z,1.00
2023-01-23T18:23:32.688Z,1.00
2023-01-23T18:26:32.540Z,1.00
2023-01-23T18:29:26.107Z,1.00
2023-01-23T18:32:34.864Z,1.00
2023-01-23T18:35:16.729Z,1.00
2023-01-23T18:37:49.145Z,1.00
2023-01-23T18:40:24.122Z,1.00
2023-01-23T18:43:18.690Z,1.00
2023-01-23T18:45:45.362Z,1.00
2023-01-23T18:48:24.529Z,1.00
2023-01-23T18:51:18.433Z,1.00
2023-01-23T18:54:07.206Z,1.00
2023-01-23T18:56:55.863Z,1.00
2023-01-23T18:59:23.944Z,1.00
2023-01-23T19:01:55.731Z,1.00
2023-01-23T19:04:31.035Z,1.00
2023-01-23T19:06:58.638Z,1.00
2023-01-23T19:09:25.260Z,1.00
2023-01-23T19:11:58.059Z,1.00
2023-01-23T19:14:37.484Z,1.00
2023-01-23T19:17:33.450Z,1.00
2023-01-23T19:20:16.746Z,1.00
2023-01-23T19:22:55.292Z,1.00
2023-01-23T19:25:22.828Z,1.00
2023-01-23T19:27:52.578Z,1.00
2023-01-23T19:30:23.510Z,1.00
2023-01-23T19:32:50.356Z,1.00
2023-01-23T19:35:17.112Z,1.00
2023-01-23T19:37:45.151Z,1.00
2023-01-23T19:40:13.123Z,1.00
2023-01-23T19:42:52.246Z,1.00
2023-01-23T19:45:25.323Z,99.90
2023-01-23T19:47:53.321Z,99.90
2023-01-23T19:50:20.264Z,99.90
2023-01-23T19:52:49.336Z,99.90
2023-01-23T19:55:28.207Z,99.90
2023-01-23T19:57:58.297Z,99.90
2023-01-23T20:00:29.608Z,99.90
2023-01-23T20:02:56.335Z,99.90
2023-01-23T20:05:23.251Z,99.90
2023-01-23T20:07:50.119Z,99.90
2023-01-23T20:10:20.110Z,99.90
2023-01-23T20:12:58.958Z,99.90
2023-01-23T20:15:25.734Z,99.90
2023-01-23T20:17:53.097Z,99.90
2023-01-23T20:20:20.254Z,99.90
2023-01-23T20:22:47.274Z,99.90
2023-01-23T20:25:15.682Z,99.90
2023-01-23T20:27:42.553Z,99.90
2023-01-23T20:30:12.904Z,99.90
2023-01-23T20:32:39.599Z,99.90
2023-01-23T20:35:06.524Z,99.90
2023-01-23T20:37:33.273Z,99.90
2023-01-23T20:40:00.220Z,99.90
2023-01-23T20:42:26.850Z,99.90
2023-01-23T20:44:56.973Z,99.90
2023-01-23T20:47:23.768Z,99.90
2023-01-23T20:49:50.460Z,99.90
2023-01-23T20:52:35.662Z,99.90
2023-01-23T20:55:02.346Z,58.10
2023-01-23T20:57:48.931Z,66.60
2023-01-23T21:00:16.072Z,99.70
2023-01-23T21:02:42.757Z,85.90
2023-01-23T21:05:09.428Z,94.80
2023-01-23T21:07:36.238Z,79.70
2023-01-23T21:10:03.141Z,93.20
2023-01-23T21:12:29.835Z,74.60
2023-01-23T21:14:56.655Z,50.40
2023-01-23T21:17:23.481Z,56.60
2023-01-23T21:19:50.357Z,45.80
2023-01-23T21:22:17.034Z,14.60
2023-01-23T21:24:43.977Z,2.50
2023-01-23T21:27:10.662Z,1.00
2023-01-23T21:29:37.817Z,1.00
2023-01-23T21:32:06.994Z,1.00
2023-01-23T21:34:33.817Z,12.80
2023-01-23T21:37:00.732Z,19.20
2023-01-23T21:39:27.373Z,19.90
2023-01-23T21:41:54.055Z,13.90
2023-01-23T21:44:20.703Z,6.90
2023-01-23T21:46:47.371Z,14.50
2023-01-23T21:49:14.113Z,14.90
2023-01-23T21:51:40.787Z,1.00
2023-01-23T21:54:09.753Z,1.00
2023-01-23T21:56:36.437Z,1.00
2023-01-23T21:59:03.143Z,1.00
2023-01-23T22:01:33.098Z,1.00
2023-01-23T22:04:04.352Z,1.00
2023-01-23T22:06:31.362Z,1.00
2023-01-23T22:08:58.110Z,1.00
2023-01-23T22:11:24.733Z,1.00
2023-01-23T22:13:51.401Z,1.00
2023-01-23T22:16:19.003Z,1.00
2023-01-23T22:18:46.473Z,1.00
2023-01-23T22:21:13.299Z,1.00
2023-01-23T22:23:40.094Z,1.00
2023-01-23T22:26:08.196Z,1.00
2023-01-23T22:28:38.083Z,1.00
2023-01-23T22:31:12.430Z,1.00
2023-01-23T22:33:41.124Z,1.00
2023-01-23T22:36:08.927Z,1.00
2023-01-23T22:38:38.086Z,1.00
2023-01-23T22:41:05.865Z,1.00
2023-01-23T22:43:33.290Z,1.00
2023-01-23T22:46:11.237Z,1.00
2023-01-23T22:48:38.823Z,1.00
2023-01-23T22:51:07.329Z,1.00
2023-01-23T22:53:34.030Z,1.00
2023-01-23T22:56:04.731Z,1.00
2023-01-23T22:58:31.346Z,1.00
2023-01-23T23:00:58.043Z,1.00
2023-01-23T23:03:24.769Z,1.00
2023-01-23T23:05:58.527Z,1.00
2023-01-23T23:08:25.156Z,1.00
2023-01-23T23:11:19.566Z,1.00
2023-01-23T23:13:46.521Z,1.00
2023-01-23T23:16:17.959Z,1.00
2023-01-23T23:18:45.596Z,1.00
2023-01-23T23:21:13.440Z,1.00
2023-01-23T23:23:40.239Z,1.00
2023-01-23T23:26:07.635Z,1.00
2023-01-23T23:28:34.377Z,1.00
2023-01-23T23:31:01.099Z,1.00
2023-01-23T23:33:27.817Z,1.00
2023-01-23T23:35:54.517Z,1.00
2023-01-23T23:38:21.304Z,1.00
2023-01-23T23:41:01.792Z,1.00
2023-01-23T23:43:28.659Z,1.00
2023-01-23T23:45:56.938Z,1.00
2023-01-23T23:48:23.847Z,1.00
2023-01-23T23:50:50.681Z,1.00
2023-01-23T23:53:17.706Z,1.00
2023-01-23T23:55:44.395Z,1.00
2023-01-23T23:58:11.244Z,1.00
